sensor_id;sensor_type;location;lat;lon;timestamp;pressure;altitude;pressure_sealevel;temperature
18219;BMP180;9234;49.344;11.120;2022-10-16T00:01:43;97396.00;;;16.70
18219;BMP180;9234;49.344;11.120;2022-10-16T00:04:11;97380.00;;;16.70
18219;BMP180;9234;49.344;11.120;2022-10-16T00:06:40;97379.00;;;16.70
18219;BMP180;9234;49.344;11.120;2022-10-16T00:09:08;97389.00;;;16.70
18219;BMP180;9234;49.344;11.120;2022-10-16T00:11:39;97382.00;;;16.70
18219;BMP180;9234;49.344;11.120;2022-10-16T00:14:11;97388.00;;;16.70
18219;BMP180;9234;49.344;11.120;2022-10-16T00:16:41;97379.00;;;16.70
18219;BMP180;9234;49.344;11.120;2022-10-16T00:19:11;97381.00;;;16.70
18219;BMP180;9234;49.344;11.120;2022-10-16T00:21:39;97376.00;;;16.60
18219;BMP180;9234;49.344;11.120;2022-10-16T00:24:10;97393.00;;;16.60
18219;BMP180;9234;49.344;11.120;2022-10-16T00:26:40;97396.00;;;16.60
18219;BMP180;9234;49.344;11.120;2022-10-16T00:29:09;97412.00;;;16.60
18219;BMP180;9234;49.344;11.120;2022-10-16T00:31:37;97397.00;;;16.70
18219;BMP180;9234;49.344;11.120;2022-10-16T00:34:05;97410.00;;;16.70
18219;BMP180;9234;49.344;11.120;2022-10-16T00:36:33;97403.00;;;16.70
18219;BMP180;9234;49.344;11.120;2022-10-16T00:39:02;97421.00;;;16.70
18219;BMP180;9234;49.344;11.120;2022-10-16T00:41:31;97413.00;;;16.70
18219;BMP180;9234;49.344;11.120;2022-10-16T00:44:03;97417.00;;;16.70
18219;BMP180;9234;49.344;11.120;2022-10-16T00:46:38;97414.00;;;16.70
18219;BMP180;9234;49.344;11.120;2022-10-16T00:49:10;97414.00;;;16.70
18219;BMP180;9234;49.344;11.120;2022-10-16T00:51:43;97407.00;;;16.70
18219;BMP180;9234;49.344;11.120;2022-10-16T00:54:16;97411.00;;;16.60
18219;BMP180;9234;49.344;11.120;2022-10-16T00:56:46;97409.00;;;16.60
18219;BMP180;9234;49.344;11.120;2022-10-16T00:59:20;97410.00;;;16.60
18219;BMP180;9234;49.344;11.120;2022-10-16T01:01:51;97401.00;;;16.60
18219;BMP180;9234;49.344;11.120;2022-10-16T01:04:21;97399.00;;;16.60
18219;BMP180;9234;49.344;11.120;2022-10-16T01:06:58;97399.00;;;16.60
18219;BMP180;9234;49.344;11.120;2022-10-16T01:09:39;97398.00;;;16.60
18219;BMP180;9234;49.344;11.120;2022-10-16T01:12:16;97405.00;;;16.50
18219;BMP180;9234;49.344;11.120;2022-10-16T01:14:56;97408.00;;;16.50
18219;BMP180;9234;49.344;11.120;2022-10-16T01:17:32;97409.00;;;16.50
18219;BMP180;9234;49.344;11.120;2022-10-16T01:20:16;97418.00;;;16.50
18219;BMP180;9234;49.344;11.120;2022-10-16T01:23:07;97414.00;;;16.50
18219;BMP180;9234;49.344;11.120;2022-10-16T01:26:06;97413.00;;;16.40
18219;BMP180;9234;49.344;11.120;2022-10-16T01:28:46;97409.00;;;16.40
18219;BMP180;9234;49.344;11.120;2022-10-16T01:31:20;97413.00;;;16.40
18219;BMP180;9234;49.344;11.120;2022-10-16T01:33:58;97401.00;;;16.40
18219;BMP180;9234;49.344;11.120;2022-10-16T01:36:35;97417.00;;;16.40
18219;BMP180;9234;49.344;11.120;2022-10-16T01:39:09;97415.00;;;16.40
18219;BMP180;9234;49.344;11.120;2022-10-16T01:41:43;97417.00;;;16.30
18219;BMP180;9234;49.344;11.120;2022-10-16T01:44:19;97430.00;;;16.30
18219;BMP180;9234;49.344;11.120;2022-10-16T01:46:51;97440.00;;;16.30
18219;BMP180;9234;49.344;11.120;2022-10-16T01:49:23;97439.00;;;16.30
18219;BMP180;9234;49.344;11.120;2022-10-16T01:51:58;97435.00;;;16.30
18219;BMP180;9234;49.344;11.120;2022-10-16T01:54:36;97443.00;;;16.30
18219;BMP180;9234;49.344;11.120;2022-10-16T01:57:08;97440.00;;;16.40
18219;BMP180;9234;49.344;11.120;2022-10-16T01:59:44;97456.00;;;16.40
18219;BMP180;9234;49.344;11.120;2022-10-16T02:02:17;97448.00;;;16.40
18219;BMP180;9234;49.344;11.120;2022-10-16T02:04:54;97448.00;;;16.40
18219;BMP180;9234;49.344;11.120;2022-10-16T02:07:25;97462.00;;;16.40
18219;BMP180;9234;49.344;11.120;2022-10-16T02:09:53;97450.00;;;16.40
18219;BMP180;9234;49.344;11.120;2022-10-16T02:12:28;97446.00;;;16.40
18219;BMP180;9234;49.344;11.120;2022-10-16T02:14:59;97446.00;;;16.40
18219;BMP180;9234;49.344;11.120;2022-10-16T02:17:29;97449.00;;;16.40
18219;BMP180;9234;49.344;11.120;2022-10-16T02:19:58;97444.00;;;16.40
18219;BMP180;9234;49.344;11.120;2022-10-16T02:22:32;97429.00;;;16.50
18219;BMP180;9234;49.344;11.120;2022-10-16T02:25:08;97448.00;;;16.50
18219;BMP180;9234;49.344;11.120;2022-10-16T02:27:47;97430.00;;;16.50
18219;BMP180;9234;49.344;11.120;2022-10-16T02:30:25;97441.00;;;16.50
18219;BMP180;9234;49.344;11.120;2022-10-16T02:32:57;97438.00;;;16.50
18219;BMP180;9234;49.344;11.120;2022-10-16T02:35:27;97442.00;;;16.50
18219;BMP180;9234;49.344;11.120;2022-10-16T02:37:57;97436.00;;;16.50
18219;BMP180;9234;49.344;11.120;2022-10-16T02:40:26;97445.00;;;16.60
18219;BMP180;9234;49.344;11.120;2022-10-16T02:42:55;97447.00;;;16.50
18219;BMP180;9234;49.344;11.120;2022-10-16T02:45:26;97443.00;;;16.60
18219;BMP180;9234;49.344;11.120;2022-10-16T02:47:54;97433.00;;;16.60
18219;BMP180;9234;49.344;11.120;2022-10-16T02:50:22;97439.00;;;16.50
18219;BMP180;9234;49.344;11.120;2022-10-16T02:52:51;97440.00;;;16.50
18219;BMP180;9234;49.344;11.120;2022-10-16T02:55:22;97442.00;;;16.50
18219;BMP180;9234;49.344;11.120;2022-10-16T02:57:51;97437.00;;;16.50
18219;BMP180;9234;49.344;11.120;2022-10-16T03:00:19;97434.00;;;16.50
18219;BMP180;9234;49.344;11.120;2022-10-16T03:02:50;97423.00;;;16.40
18219;BMP180;9234;49.344;11.120;2022-10-16T03:05:18;97432.00;;;16.40
18219;BMP180;9234;49.344;11.120;2022-10-16T03:07:51;97443.00;;;16.40
18219;BMP180;9234;49.344;11.120;2022-10-16T03:10:19;97440.00;;;16.40
18219;BMP180;9234;49.344;11.120;2022-10-16T03:12:48;97446.00;;;16.40
18219;BMP180;9234;49.344;11.120;2022-10-16T03:15:16;97437.00;;;16.40
18219;BMP180;9234;49.344;11.120;2022-10-16T03:17:44;97422.00;;;16.30
18219;BMP180;9234;49.344;11.120;2022-10-16T03:20:14;97436.00;;;16.30
18219;BMP180;9234;49.344;11.120;2022-10-16T03:22:42;97450.00;;;16.30
18219;BMP180;9234;49.344;11.120;2022-10-16T03:25:10;97442.00;;;16.30
18219;BMP180;9234;49.344;11.120;2022-10-16T03:27:38;97451.00;;;16.40
18219;BMP180;9234;49.344;11.120;2022-10-16T03:30:08;97462.00;;;16.40
18219;BMP180;9234;49.344;11.120;2022-10-16T03:32:37;97453.00;;;16.40
18219;BMP180;9234;49.344;11.120;2022-10-16T03:35:06;97442.00;;;16.40
18219;BMP180;9234;49.344;11.120;2022-10-16T03:37:36;97439.00;;;16.40
18219;BMP180;9234;49.344;11.120;2022-10-16T03:40:05;97448.00;;;16.40
18219;BMP180;9234;49.344;11.120;2022-10-16T03:42:34;97456.00;;;16.30
18219;BMP180;9234;49.344;11.120;2022-10-16T03:45:02;97456.00;;;16.40
18219;BMP180;9234;49.344;11.120;2022-10-16T03:47:30;97450.00;;;16.30
18219;BMP180;9234;49.344;11.120;2022-10-16T03:50:00;97465.00;;;16.30
18219;BMP180;9234;49.344;11.120;2022-10-16T03:52:28;97443.00;;;16.30
18219;BMP180;9234;49.344;11.120;2022-10-16T03:54:58;97457.00;;;16.30
18219;BMP180;9234;49.344;11.120;2022-10-16T03:57:26;97465.00;;;16.30
18219;BMP180;9234;49.344;11.120;2022-10-16T03:59:55;97454.00;;;16.30
18219;BMP180;9234;49.344;11.120;2022-10-16T04:02:23;97466.00;;;16.30
18219;BMP180;9234;49.344;11.120;2022-10-16T04:04:51;97466.00;;;16.30
18219;BMP180;9234;49.344;11.120;2022-10-16T04:07:19;97471.00;;;16.30
18219;BMP180;9234;49.344;11.120;2022-10-16T04:09:47;97473.00;;;16.30
18219;BMP180;9234;49.344;11.120;2022-10-16T04:12:17;97473.00;;;16.30
18219;BMP180;9234;49.344;11.120;2022-10-16T04:14:45;97483.00;;;16.30
18219;BMP180;9234;49.344;11.120;2022-10-16T04:17:13;97485.00;;;16.40
18219;BMP180;9234;49.344;11.120;2022-10-16T04:19:41;97469.00;;;16.40
18219;BMP180;9234;49.344;11.120;2022-10-16T04:22:09;97486.00;;;16.40
18219;BMP180;9234;49.344;11.120;2022-10-16T04:24:37;97490.00;;;16.40
18219;BMP180;9234;49.344;11.120;2022-10-16T04:27:05;97479.00;;;16.40
18219;BMP180;9234;49.344;11.120;2022-10-16T04:29:35;97485.00;;;16.40
18219;BMP180;9234;49.344;11.120;2022-10-16T04:32:03;97467.00;;;16.40
18219;BMP180;9234;49.344;11.120;2022-10-16T04:34:31;97474.00;;;16.40
18219;BMP180;9234;49.344;11.120;2022-10-16T04:37:00;97484.00;;;16.40
18219;BMP180;9234;49.344;11.120;2022-10-16T04:39:28;97475.00;;;16.40
18219;BMP180;9234;49.344;11.120;2022-10-16T04:41:56;97469.00;;;16.40
18219;BMP180;9234;49.344;11.120;2022-10-16T04:44:24;97470.00;;;16.40
18219;BMP180;9234;49.344;11.120;2022-10-16T04:46:53;97479.00;;;16.40
18219;BMP180;9234;49.344;11.120;2022-10-16T04:49:22;97472.00;;;16.40
18219;BMP180;9234;49.344;11.120;2022-10-16T04:51:50;97461.00;;;16.40
18219;BMP180;9234;49.344;11.120;2022-10-16T04:54:18;97464.00;;;16.40
18219;BMP180;9234;49.344;11.120;2022-10-16T04:56:46;97465.00;;;16.40
18219;BMP180;9234;49.344;11.120;2022-10-16T04:59:14;97466.00;;;16.40
18219;BMP180;9234;49.344;11.120;2022-10-16T05:01:43;97466.00;;;16.40
18219;BMP180;9234;49.344;11.120;2022-10-16T05:04:13;97472.00;;;16.30
18219;BMP180;9234;49.344;11.120;2022-10-16T05:06:42;97481.00;;;16.30
18219;BMP180;9234;49.344;11.120;2022-10-16T05:09:10;97485.00;;;16.30
18219;BMP180;9234;49.344;11.120;2022-10-16T05:11:39;97492.00;;;16.30
18219;BMP180;9234;49.344;11.120;2022-10-16T05:14:07;97480.00;;;16.30
18219;BMP180;9234;49.344;11.120;2022-10-16T05:16:40;97479.00;;;16.30
18219;BMP180;9234;49.344;11.120;2022-10-16T05:19:08;97480.00;;;16.30
18219;BMP180;9234;49.344;11.120;2022-10-16T05:21:55;97491.00;;;16.20
18219;BMP180;9234;49.344;11.120;2022-10-16T05:24:23;97499.00;;;16.20
18219;BMP180;9234;49.344;11.120;2022-10-16T05:26:52;97494.00;;;16.20
18219;BMP180;9234;49.344;11.120;2022-10-16T05:29:20;97509.00;;;16.20
18219;BMP180;9234;49.344;11.120;2022-10-16T05:31:51;97495.00;;;16.20
18219;BMP180;9234;49.344;11.120;2022-10-16T05:34:20;97500.00;;;16.20
18219;BMP180;9234;49.344;11.120;2022-10-16T05:36:48;97490.00;;;16.20
18219;BMP180;9234;49.344;11.120;2022-10-16T05:39:18;97504.00;;;16.20
18219;BMP180;9234;49.344;11.120;2022-10-16T05:41:49;97504.00;;;16.10
18219;BMP180;9234;49.344;11.120;2022-10-16T05:44:17;97519.00;;;16.20
18219;BMP180;9234;49.344;11.120;2022-10-16T05:46:46;97529.00;;;16.10
18219;BMP180;9234;49.344;11.120;2022-10-16T05:49:15;97528.00;;;16.10
18219;BMP180;9234;49.344;11.120;2022-10-16T05:51:43;97526.00;;;16.20
18219;BMP180;9234;49.344;11.120;2022-10-16T05:54:11;97534.00;;;16.20
18219;BMP180;9234;49.344;11.120;2022-10-16T05:56:41;97540.00;;;16.20
18219;BMP180;9234;49.344;11.120;2022-10-16T05:59:09;97543.00;;;16.20
18219;BMP180;9234;49.344;11.120;2022-10-16T06:01:37;97541.00;;;16.20
18219;BMP180;9234;49.344;11.120;2022-10-16T06:04:09;97542.00;;;16.20
18219;BMP180;9234;49.344;11.120;2022-10-16T06:06:42;97550.00;;;16.30
18219;BMP180;9234;49.344;11.120;2022-10-16T06:09:10;97552.00;;;16.30
18219;BMP180;9234;49.344;11.120;2022-10-16T06:11:40;97550.00;;;16.40
18219;BMP180;9234;49.344;11.120;2022-10-16T06:14:08;97552.00;;;16.40
18219;BMP180;9234;49.344;11.120;2022-10-16T06:16:37;97549.00;;;16.40
18219;BMP180;9234;49.344;11.120;2022-10-16T06:19:06;97553.00;;;16.40
18219;BMP180;9234;49.344;11.120;2022-10-16T06:21:35;97555.00;;;16.50
18219;BMP180;9234;49.344;11.120;2022-10-16T06:24:03;97549.00;;;16.50
18219;BMP180;9234;49.344;11.120;2022-10-16T06:26:32;97543.00;;;16.50
18219;BMP180;9234;49.344;11.120;2022-10-16T06:29:01;97548.00;;;16.50
18219;BMP180;9234;49.344;11.120;2022-10-16T06:31:30;97553.00;;;16.50
18219;BMP180;9234;49.344;11.120;2022-10-16T06:34:00;97549.00;;;16.60
18219;BMP180;9234;49.344;11.120;2022-10-16T06:36:30;97563.00;;;16.60
18219;BMP180;9234;49.344;11.120;2022-10-16T06:38:58;97557.00;;;16.70
18219;BMP180;9234;49.344;11.120;2022-10-16T06:41:27;97567.00;;;16.70
18219;BMP180;9234;49.344;11.120;2022-10-16T06:43:56;97568.00;;;16.80
18219;BMP180;9234;49.344;11.120;2022-10-16T06:46:27;97561.00;;;16.80
18219;BMP180;9234;49.344;11.120;2022-10-16T06:48:55;97562.00;;;16.90
18219;BMP180;9234;49.344;11.120;2022-10-16T06:51:25;97570.00;;;17.00
18219;BMP180;9234;49.344;11.120;2022-10-16T06:53:55;97574.00;;;17.00
18219;BMP180;9234;49.344;11.120;2022-10-16T06:56:33;97576.00;;;17.10
18219;BMP180;9234;49.344;11.120;2022-10-16T06:59:02;97573.00;;;17.10
18219;BMP180;9234;49.344;11.120;2022-10-16T07:01:32;97574.00;;;17.10
18219;BMP180;9234;49.344;11.120;2022-10-16T07:04:02;97579.00;;;17.20
18219;BMP180;9234;49.344;11.120;2022-10-16T07:06:33;97584.00;;;17.20
18219;BMP180;9234;49.344;11.120;2022-10-16T07:09:09;97595.00;;;17.30
18219;BMP180;9234;49.344;11.120;2022-10-16T07:11:39;97608.00;;;17.30
18219;BMP180;9234;49.344;11.120;2022-10-16T07:14:15;97620.00;;;17.40
18219;BMP180;9234;49.344;11.120;2022-10-16T07:16:45;97612.00;;;17.40
18219;BMP180;9234;49.344;11.120;2022-10-16T07:19:14;97614.00;;;17.50
18219;BMP180;9234;49.344;11.120;2022-10-16T07:21:48;97634.00;;;17.50
18219;BMP180;9234;49.344;11.120;2022-10-16T07:24:17;97630.00;;;17.60
18219;BMP180;9234;49.344;11.120;2022-10-16T07:26:46;97634.00;;;17.60
18219;BMP180;9234;49.344;11.120;2022-10-16T07:29:17;97624.00;;;17.60
18219;BMP180;9234;49.344;11.120;2022-10-16T07:31:49;97628.00;;;17.60
18219;BMP180;9234;49.344;11.120;2022-10-16T07:34:19;97638.00;;;17.70
18219;BMP180;9234;49.344;11.120;2022-10-16T07:41:51;97648.00;;;17.70
18219;BMP180;9234;49.344;11.120;2022-10-16T07:44:20;97652.00;;;17.70
18219;BMP180;9234;49.344;11.120;2022-10-16T07:46:49;97659.00;;;17.70
18219;BMP180;9234;49.344;11.120;2022-10-16T07:49:17;97652.00;;;17.70
18219;BMP180;9234;49.344;11.120;2022-10-16T07:51:45;97626.00;;;17.70
18219;BMP180;9234;49.344;11.120;2022-10-16T07:54:16;97645.00;;;17.80
18219;BMP180;9234;49.344;11.120;2022-10-16T07:56:44;97626.00;;;17.80
18219;BMP180;9234;49.344;11.120;2022-10-16T07:59:12;97639.00;;;17.80
18219;BMP180;9234;49.344;11.120;2022-10-16T08:01:41;97641.00;;;17.80
18219;BMP180;9234;49.344;11.120;2022-10-16T08:04:11;97638.00;;;17.90
18219;BMP180;9234;49.344;11.120;2022-10-16T08:06:40;97638.00;;;17.90
18219;BMP180;9234;49.344;11.120;2022-10-16T08:09:09;97637.00;;;18.00
18219;BMP180;9234;49.344;11.120;2022-10-16T08:11:37;97645.00;;;18.00
18219;BMP180;9234;49.344;11.120;2022-10-16T08:14:05;97647.00;;;18.10
18219;BMP180;9234;49.344;11.120;2022-10-16T08:16:33;97643.00;;;18.30
18219;BMP180;9234;49.344;11.120;2022-10-16T08:19:02;97662.00;;;18.40
18219;BMP180;9234;49.344;11.120;2022-10-16T08:21:31;97656.00;;;18.60
18219;BMP180;9234;49.344;11.120;2022-10-16T08:24:00;97668.00;;;18.80
18219;BMP180;9234;49.344;11.120;2022-10-16T08:26:28;97670.00;;;18.90
18219;BMP180;9234;49.344;11.120;2022-10-16T08:28:56;97670.00;;;19.00
18219;BMP180;9234;49.344;11.120;2022-10-16T08:31:25;97667.00;;;19.10
18219;BMP180;9234;49.344;11.120;2022-10-16T08:33:54;97674.00;;;19.20
18219;BMP180;9234;49.344;11.120;2022-10-16T08:36:22;97664.00;;;19.30
18219;BMP180;9234;49.344;11.120;2022-10-16T08:38:51;97669.00;;;19.30
18219;BMP180;9234;49.344;11.120;2022-10-16T08:41:42;97674.00;;;19.40
18219;BMP180;9234;49.344;11.120;2022-10-16T08:44:42;97674.00;;;19.60
18219;BMP180;9234;49.344;11.120;2022-10-16T08:47:19;97671.00;;;19.80
18219;BMP180;9234;49.344;11.120;2022-10-16T08:49:58;97678.00;;;20.00
18219;BMP180;9234;49.344;11.120;2022-10-16T08:52:32;97675.00;;;20.10
18219;BMP180;9234;49.344;11.120;2022-10-16T08:55:04;97672.00;;;20.20
18219;BMP180;9234;49.344;11.120;2022-10-16T08:57:33;97677.00;;;20.20
18219;BMP180;9234;49.344;11.120;2022-10-16T09:00:12;97675.00;;;20.30
18219;BMP180;9234;49.344;11.120;2022-10-16T09:02:50;97681.00;;;20.40
18219;BMP180;9234;49.344;11.120;2022-10-16T09:05:43;97683.00;;;20.50
18219;BMP180;9234;49.344;11.120;2022-10-16T09:08:25;97689.00;;;20.60
18219;BMP180;9234;49.344;11.120;2022-10-16T09:11:03;97687.00;;;20.70
18219;BMP180;9234;49.344;11.120;2022-10-16T09:13:45;97681.00;;;20.80
18219;BMP180;9234;49.344;11.120;2022-10-16T09:16:23;97672.00;;;20.90
18219;BMP180;9234;49.344;11.120;2022-10-16T09:19:00;97687.00;;;21.00
18219;BMP180;9234;49.344;11.120;2022-10-16T09:21:35;97694.00;;;21.10
18219;BMP180;9234;49.344;11.120;2022-10-16T09:24:13;97688.00;;;21.20
18219;BMP180;9234;49.344;11.120;2022-10-16T09:26:43;97690.00;;;21.20
18219;BMP180;9234;49.344;11.120;2022-10-16T09:29:13;97688.00;;;21.30
18219;BMP180;9234;49.344;11.120;2022-10-16T09:31:42;97683.00;;;21.30
18219;BMP180;9234;49.344;11.120;2022-10-16T09:34:24;97693.00;;;21.30
18219;BMP180;9234;49.344;11.120;2022-10-16T09:36:53;97704.00;;;21.20
18219;BMP180;9234;49.344;11.120;2022-10-16T09:39:22;97704.00;;;21.10
18219;BMP180;9234;49.344;11.120;2022-10-16T09:41:52;97700.00;;;20.90
18219;BMP180;9234;49.344;11.120;2022-10-16T09:44:26;97712.00;;;20.80
18219;BMP180;9234;49.344;11.120;2022-10-16T09:47:03;97720.00;;;20.70
18219;BMP180;9234;49.344;11.120;2022-10-16T09:49:31;97716.00;;;20.60
18219;BMP180;9234;49.344;11.120;2022-10-16T09:52:06;97715.00;;;20.50
18219;BMP180;9234;49.344;11.120;2022-10-16T09:54:49;97712.00;;;20.50
18219;BMP180;9234;49.344;11.120;2022-10-16T09:57:19;97706.00;;;20.50
18219;BMP180;9234;49.344;11.120;2022-10-16T09:59:50;97701.00;;;20.50
18219;BMP180;9234;49.344;11.120;2022-10-16T10:02:25;97701.00;;;20.70
18219;BMP180;9234;49.344;11.120;2022-10-16T10:04:55;97705.00;;;20.90
18219;BMP180;9234;49.344;11.120;2022-10-16T10:07:27;97702.00;;;21.20
18219;BMP180;9234;49.344;11.120;2022-10-16T10:09:57;97701.00;;;21.40
18219;BMP180;9234;49.344;11.120;2022-10-16T10:12:29;97709.00;;;21.50
18219;BMP180;9234;49.344;11.120;2022-10-16T10:15:07;97723.00;;;21.70
18219;BMP180;9234;49.344;11.120;2022-10-16T10:17:47;97712.00;;;21.90
18219;BMP180;9234;49.344;11.120;2022-10-16T10:20:24;97714.00;;;22.00
18219;BMP180;9234;49.344;11.120;2022-10-16T10:22:52;97711.00;;;22.00
18219;BMP180;9234;49.344;11.120;2022-10-16T10:25:49;97715.00;;;22.20
18219;BMP180;9234;49.344;11.120;2022-10-16T10:28:44;97723.00;;;22.30
18219;BMP180;9234;49.344;11.120;2022-10-16T10:31:21;97720.00;;;22.30
18219;BMP180;9234;49.344;11.120;2022-10-16T10:34:01;97712.00;;;22.40
18219;BMP180;9234;49.344;11.120;2022-10-16T10:36:36;97714.00;;;22.50
18219;BMP180;9234;49.344;11.120;2022-10-16T10:39:11;97724.00;;;22.50
18219;BMP180;9234;49.344;11.120;2022-10-16T10:42:17;97728.00;;;22.70
18219;BMP180;9234;49.344;11.120;2022-10-16T10:45:17;97716.00;;;22.90
18219;BMP180;9234;49.344;11.120;2022-10-16T10:48:03;97722.00;;;23.10
18219;BMP180;9234;49.344;11.120;2022-10-16T10:50:43;97723.00;;;23.30
18219;BMP180;9234;49.344;11.120;2022-10-16T10:53:33;97711.00;;;23.40
18219;BMP180;9234;49.344;11.120;2022-10-16T10:56:19;97716.00;;;23.50
18219;BMP180;9234;49.344;11.120;2022-10-16T10:59:08;97716.00;;;23.60
18219;BMP180;9234;49.344;11.120;2022-10-16T11:01:50;97728.00;;;23.70
18219;BMP180;9234;49.344;11.120;2022-10-16T11:04:49;97725.00;;;23.60
18219;BMP180;9234;49.344;11.120;2022-10-16T11:07:27;97719.00;;;23.60
18219;BMP180;9234;49.344;11.120;2022-10-16T11:10:05;97721.00;;;23.50
18219;BMP180;9234;49.344;11.120;2022-10-16T11:12:42;97729.00;;;23.50
18219;BMP180;9234;49.344;11.120;2022-10-16T11:15:18;97729.00;;;23.40
18219;BMP180;9234;49.344;11.120;2022-10-16T11:17:55;97723.00;;;23.40
18219;BMP180;9234;49.344;11.120;2022-10-16T11:20:30;97730.00;;;23.30
18219;BMP180;9234;49.344;11.120;2022-10-16T11:23:10;97718.00;;;23.30
18219;BMP180;9234;49.344;11.120;2022-10-16T11:25:40;97723.00;;;23.40
18219;BMP180;9234;49.344;11.120;2022-10-16T11:28:14;97721.00;;;23.40
18219;BMP180;9234;49.344;11.120;2022-10-16T11:30:50;97725.00;;;23.60
18219;BMP180;9234;49.344;11.120;2022-10-16T11:33:30;97734.00;;;23.80
18219;BMP180;9234;49.344;11.120;2022-10-16T11:36:08;97716.00;;;24.00
18219;BMP180;9234;49.344;11.120;2022-10-16T11:38:47;97721.00;;;24.20
18219;BMP180;9234;49.344;11.120;2022-10-16T11:41:26;97719.00;;;24.40
18219;BMP180;9234;49.344;11.120;2022-10-16T11:44:19;97728.00;;;24.80
18219;BMP180;9234;49.344;11.120;2022-10-16T11:46:58;97725.00;;;25.10
18219;BMP180;9234;49.344;11.120;2022-10-16T11:49:57;97732.00;;;25.30
18219;BMP180;9234;49.344;11.120;2022-10-16T11:52:33;97728.00;;;25.50
18219;BMP180;9234;49.344;11.120;2022-10-16T11:55:14;97733.00;;;25.80
18219;BMP180;9234;49.344;11.120;2022-10-16T11:57:49;97726.00;;;26.00
18219;BMP180;9234;49.344;11.120;2022-10-16T12:00:24;97734.00;;;26.30
18219;BMP180;9234;49.344;11.120;2022-10-16T12:03:04;97735.00;;;27.20
18219;BMP180;9234;49.344;11.120;2022-10-16T12:06:14;97733.00;;;28.30
18219;BMP180;9234;49.344;11.120;2022-10-16T12:08:47;97734.00;;;28.60
18219;BMP180;9234;49.344;11.120;2022-10-16T12:11:35;97736.00;;;28.80
18219;BMP180;9234;49.344;11.120;2022-10-16T12:14:07;97733.00;;;29.30
18219;BMP180;9234;49.344;11.120;2022-10-16T12:16:54;97735.00;;;29.70
18219;BMP180;9234;49.344;11.120;2022-10-16T12:19:25;97724.00;;;30.40
18219;BMP180;9234;49.344;11.120;2022-10-16T12:21:59;97736.00;;;31.00
18219;BMP180;9234;49.344;11.120;2022-10-16T12:24:35;97736.00;;;30.90
18219;BMP180;9234;49.344;11.120;2022-10-16T12:27:24;97742.00;;;30.00
18219;BMP180;9234;49.344;11.120;2022-10-16T12:29:57;97737.00;;;29.00
18219;BMP180;9234;49.344;11.120;2022-10-16T12:32:32;97738.00;;;28.30
18219;BMP180;9234;49.344;11.120;2022-10-16T12:35:20;97734.00;;;27.70
18219;BMP180;9234;49.344;11.120;2022-10-16T12:37:51;97731.00;;;27.30
18219;BMP180;9234;49.344;11.120;2022-10-16T12:40:28;97731.00;;;27.10
18219;BMP180;9234;49.344;11.120;2022-10-16T12:42:58;97723.00;;;26.90
18219;BMP180;9234;49.344;11.120;2022-10-16T12:45:31;97741.00;;;26.80
18219;BMP180;9234;49.344;11.120;2022-10-16T12:48:02;97733.00;;;26.70
18219;BMP180;9234;49.344;11.120;2022-10-16T12:50:34;97724.00;;;26.70
18219;BMP180;9234;49.344;11.120;2022-10-16T12:53:18;97731.00;;;26.70
18219;BMP180;9234;49.344;11.120;2022-10-16T12:56:00;97731.00;;;26.90
18219;BMP180;9234;49.344;11.120;2022-10-16T12:58:52;97736.00;;;27.30
18219;BMP180;9234;49.344;11.120;2022-10-16T13:01:56;97738.00;;;27.70
18219;BMP180;9234;49.344;11.120;2022-10-16T13:05:00;97736.00;;;28.10
18219;BMP180;9234;49.344;11.120;2022-10-16T13:07:49;97740.00;;;29.00
18219;BMP180;9234;49.344;11.120;2022-10-16T13:10:28;97739.00;;;30.40
18219;BMP180;9234;49.344;11.120;2022-10-16T13:13:44;97745.00;;;31.40
18219;BMP180;9234;49.344;11.120;2022-10-16T13:16:25;97747.00;;;31.90
18219;BMP180;9234;49.344;11.120;2022-10-16T13:19:11;97754.00;;;32.50
18219;BMP180;9234;49.344;11.120;2022-10-16T13:21:51;97750.00;;;33.10
18219;BMP180;9234;49.344;11.120;2022-10-16T13:27:31;97751.00;;;32.50
18219;BMP180;9234;49.344;11.120;2022-10-16T13:30:12;97756.00;;;31.40
18219;BMP180;9234;49.344;11.120;2022-10-16T13:32:46;97757.00;;;30.70
18219;BMP180;9234;49.344;11.120;2022-10-16T13:35:27;97758.00;;;30.20
18219;BMP180;9234;49.344;11.120;2022-10-16T13:38:13;97750.00;;;29.80
18219;BMP180;9234;49.344;11.120;2022-10-16T13:40:55;97746.00;;;29.90
18219;BMP180;9234;49.344;11.120;2022-10-16T13:43:33;97748.00;;;29.90
18219;BMP180;9234;49.344;11.120;2022-10-16T13:46:05;97750.00;;;29.40
18219;BMP180;9234;49.344;11.120;2022-10-16T13:48:34;97755.00;;;28.90
18219;BMP180;9234;49.344;11.120;2022-10-16T13:51:06;97762.00;;;28.50
18219;BMP180;9234;49.344;11.120;2022-10-16T13:53:35;97759.00;;;28.10
18219;BMP180;9234;49.344;11.120;2022-10-16T13:56:07;97754.00;;;27.60
18219;BMP180;9234;49.344;11.120;2022-10-16T13:58:37;97762.00;;;27.30
18219;BMP180;9234;49.344;11.120;2022-10-16T14:01:16;97768.00;;;27.10
18219;BMP180;9234;49.344;11.120;2022-10-16T14:03:46;97774.00;;;26.90
18219;BMP180;9234;49.344;11.120;2022-10-16T14:06:17;97766.00;;;26.80
18219;BMP180;9234;49.344;11.120;2022-10-16T14:08:54;97759.00;;;26.70
18219;BMP180;9234;49.344;11.120;2022-10-16T14:11:25;97760.00;;;26.60
18219;BMP180;9234;49.344;11.120;2022-10-16T14:13:55;97776.00;;;26.50
18219;BMP180;9234;49.344;11.120;2022-10-16T14:16:28;97774.00;;;26.60
18219;BMP180;9234;49.344;11.120;2022-10-16T14:19:01;97772.00;;;26.60
18219;BMP180;9234;49.344;11.120;2022-10-16T14:21:30;97779.00;;;26.50
18219;BMP180;9234;49.344;11.120;2022-10-16T14:23:59;97773.00;;;26.40
18219;BMP180;9234;49.344;11.120;2022-10-16T14:26:28;97774.00;;;26.40
18219;BMP180;9234;49.344;11.120;2022-10-16T14:29:14;97777.00;;;26.60
18219;BMP180;9234;49.344;11.120;2022-10-16T14:31:42;97771.00;;;27.00
18219;BMP180;9234;49.344;11.120;2022-10-16T14:34:26;97780.00;;;27.00
18219;BMP180;9234;49.344;11.120;2022-10-16T14:36:56;97774.00;;;26.80
18219;BMP180;9234;49.344;11.120;2022-10-16T14:39:25;97768.00;;;26.70
18219;BMP180;9234;49.344;11.120;2022-10-16T14:41:57;97773.00;;;26.60
18219;BMP180;9234;49.344;11.120;2022-10-16T14:44:33;97773.00;;;26.70
18219;BMP180;9234;49.344;11.120;2022-10-16T14:47:13;97774.00;;;26.70
18219;BMP180;9234;49.344;11.120;2022-10-16T14:49:42;97778.00;;;26.50
18219;BMP180;9234;49.344;11.120;2022-10-16T14:52:12;97765.00;;;26.30
18219;BMP180;9234;49.344;11.120;2022-10-16T14:54:40;97781.00;;;26.20